createdAt,value
2023-04-17T00:01:05.963Z,8.80
2023-04-17T00:03:33.697Z,8.90
2023-04-17T00:06:01.092Z,8.90
2023-04-17T00:08:28.438Z,8.90
2023-04-17T00:11:06.455Z,8.90
2023-04-17T00:13:34.976Z,8.90
2023-04-17T00:16:02.483Z,8.90
2023-04-17T00:18:30.125Z,8.90
2023-04-17T00:20:57.660Z,8.90
2023-04-17T00:23:26.299Z,8.90
2023-04-17T00:25:53.566Z,8.90
2023-04-17T00:28:20.951Z,8.90
2023-04-17T00:30:48.236Z,8.90
2023-04-17T00:33:15.775Z,8.90
2023-04-17T00:35:43.090Z,8.90
2023-04-17T00:38:10.787Z,8.80
2023-04-17T00:40:38.052Z,8.80
2023-04-17T00:43:07.074Z,8.80
2023-04-17T00:45:35.363Z,8.80
2023-04-17T00:48:05.833Z,8.80
2023-04-17T00:50:33.743Z,8.80
2023-04-17T00:53:01.632Z,8.80
2023-04-17T00:55:31.524Z,8.80
2023-04-17T00:58:00.496Z,8.70
2023-04-17T01:00:27.928Z,8.70
2023-04-17T01:03:00.392Z,8.70
2023-04-17T01:05:27.999Z,8.70
2023-04-17T01:07:58.114Z,8.70
2023-04-17T01:10:25.519Z,8.70
2023-04-17T01:13:03.400Z,8.70
2023-04-17T01:15:31.846Z,8.70
2023-04-17T01:17:59.495Z,8.70
2023-04-17T01:20:30.164Z,8.70
2023-04-17T01:22:58.594Z,8.70
2023-04-17T01:25:27.478Z,8.70
2023-04-17T01:27:55.344Z,8.70
2023-04-17T01:30:22.840Z,8.70
2023-04-17T01:32:56.320Z,8.60
2023-04-17T01:35:23.664Z,8.60
2023-04-17T01:37:51.173Z,8.60
2023-04-17T01:40:18.853Z,8.70
2023-04-17T01:42:46.244Z,8.60
2023-04-17T01:45:13.700Z,8.60
2023-04-17T01:47:41.157Z,8.70
2023-04-17T01:50:09.307Z,8.60
2023-04-17T01:52:37.360Z,8.60
2023-04-17T01:55:05.098Z,8.60
2023-04-17T01:57:33.297Z,8.70
2023-04-17T02:00:00.768Z,8.70
2023-04-17T02:02:28.137Z,8.70
2023-04-17T02:04:55.626Z,8.70
2023-04-17T02:07:22.933Z,8.70
2023-04-17T02:09:50.222Z,8.70
2023-04-17T02:12:17.527Z,8.70
2023-04-17T02:14:44.881Z,8.60
2023-04-17T02:17:12.218Z,8.60
2023-04-17T02:19:39.556Z,8.60
2023-04-17T02:22:06.827Z,8.60
2023-04-17T02:24:34.140Z,8.60
2023-04-17T02:27:01.994Z,8.60
2023-04-17T02:29:29.369Z,8.60
2023-04-17T02:31:57.087Z,8.60
2023-04-17T02:34:24.477Z,8.60
2023-04-17T02:36:53.341Z,8.60
2023-04-17T02:39:23.725Z,8.60
2023-04-17T02:41:51.054Z,8.60
2023-04-17T02:44:18.459Z,8.60
2023-04-17T02:46:45.902Z,8.60
2023-04-17T02:49:14.578Z,8.60
2023-04-17T02:51:42.070Z,8.60
2023-04-17T02:54:09.413Z,8.60
2023-04-17T02:56:36.787Z,8.60
2023-04-17T02:59:04.197Z,8.50
2023-04-17T03:01:31.648Z,8.50
2023-04-17T03:03:59.347Z,8.50
2023-04-17T03:06:26.791Z,8.50
2023-04-17T03:08:54.206Z,8.50
2023-04-17T03:11:21.735Z,8.50
2023-04-17T03:13:49.416Z,8.50
2023-04-17T03:16:16.737Z,8.50
2023-04-17T03:18:46.367Z,8.50
2023-04-17T03:21:13.696Z,8.60
2023-04-17T03:23:41.483Z,8.50
2023-04-17T03:26:09.646Z,8.50
2023-04-17T03:28:37.807Z,8.50
2023-04-17T03:31:06.602Z,8.50
2023-04-17T03:33:37.837Z,8.50
2023-04-17T03:36:09.049Z,8.50
2023-04-17T03:38:38.299Z,8.50
2023-04-17T03:41:08.072Z,8.50
2023-04-17T03:43:35.504Z,8.50
2023-04-17T03:46:02.866Z,8.50
2023-04-17T03:48:31.278Z,8.50
2023-04-17T03:50:58.913Z,8.50
2023-04-17T03:53:26.647Z,8.50
2023-04-17T03:55:54.798Z,8.50
2023-04-17T03:58:30.031Z,8.50
2023-04-17T04:00:58.987Z,8.50
2023-04-17T04:03:31.186Z,8.50
2023-04-17T04:05:59.822Z,8.50
2023-04-17T04:08:27.227Z,8.40
2023-04-17T04:10:55.312Z,8.50
2023-04-17T04:13:32.572Z,8.50
2023-04-17T04:16:02.028Z,8.60
2023-04-17T04:18:31.618Z,8.60
2023-04-17T04:20:59.401Z,8.50
2023-04-17T04:23:31.339Z,8.50
2023-04-17T04:26:01.784Z,8.60
2023-04-17T04:28:39.236Z,8.60
2023-04-17T04:31:10.670Z,8.60
2023-04-17T04:33:40.889Z,8.60
2023-04-17T04:36:08.392Z,8.60
2023-04-17T04:38:36.520Z,8.60
2023-04-17T04:41:11.456Z,8.60
2023-04-17T04:43:41.990Z,8.60
2023-04-17T04:46:13.085Z,8.60
2023-04-17T04:48:45.391Z,8.60
2023-04-17T04:51:13.253Z,8.60
2023-04-17T04:53:41.302Z,8.60
2023-04-17T04:56:08.936Z,8.60
2023-04-17T04:58:38.605Z,8.60
2023-04-17T05:01:06.872Z,8.60
2023-04-17T05:03:40.650Z,8.60
2023-04-17T05:06:11.231Z,8.60
2023-04-17T05:08:43.346Z,8.60
2023-04-17T05:11:12.758Z,8.60
2023-04-17T05:13:40.480Z,8.60
2023-04-17T05:16:13.987Z,8.60
2023-04-17T05:18:41.506Z,8.60
2023-04-17T05:21:11.769Z,8.60
2023-04-17T05:23:42.017Z,8.60
2023-04-17T05:26:09.367Z,8.60
2023-04-17T05:28:36.638Z,8.60
2023-04-17T05:31:04.388Z,8.60
2023-04-17T05:33:37.013Z,8.60
2023-04-17T05:36:06.809Z,8.60
2023-04-17T05:38:37.643Z,8.60
2023-04-17T05:41:08.478Z,8.60
2023-04-17T05:43:38.546Z,8.60
2023-04-17T05:46:07.118Z,8.70
2023-04-17T05:48:34.531Z,8.70
2023-04-17T05:51:04.158Z,8.80
2023-04-17T05:53:33.165Z,8.80
2023-04-17T05:56:01.815Z,8.80
2023-04-17T05:58:31.741Z,8.80
2023-04-17T06:00:59.627Z,8.80
2023-04-17T06:03:28.778Z,8.80
2023-04-17T06:06:03.804Z,8.90
2023-04-17T06:08:32.199Z,8.90
2023-04-17T06:10:59.555Z,8.90
2023-04-17T06:13:27.603Z,9.00
2023-04-17T06:15:57.609Z,9.00
2023-04-17T06:18:24.970Z,9.00
2023-04-17T06:20:52.557Z,9.00
2023-04-17T06:23:21.711Z,9.00
2023-04-17T06:25:50.136Z,8.90
2023-04-17T06:28:18.943Z,8.90
2023-04-17T06:30:49.145Z,8.90
2023-04-17T06:33:16.551Z,8.90
2023-04-17T06:35:44.682Z,8.80
2023-04-17T06:38:19.838Z,8.70
2023-04-17T06:40:47.773Z,8.80
2023-04-17T06:43:18.111Z,8.90
2023-04-17T06:45:46.895Z,8.90
2023-04-17T06:48:14.421Z,9.00
2023-04-17T06:50:41.794Z,9.10
2023-04-17T06:53:09.742Z,9.10
2023-04-17T06:55:37.159Z,9.20
2023-04-17T06:58:05.029Z,9.20
2023-04-17T07:00:32.489Z,9.20
2023-04-17T07:03:00.627Z,9.30
2023-04-17T07:05:30.237Z,9.20
2023-04-17T07:07:57.600Z,9.20
2023-04-17T07:10:24.892Z,9.00
2023-04-17T07:12:52.438Z,8.90
2023-04-17T07:15:20.046Z,8.80
2023-04-17T07:17:47.633Z,8.70
2023-04-17T07:20:15.105Z,8.70
2023-04-17T07:22:43.245Z,8.80
2023-04-17T07:25:10.650Z,8.80
2023-04-17T07:27:39.407Z,8.80
2023-04-17T07:30:08.650Z,8.80
2023-04-17T07:32:36.507Z,8.90
2023-04-17T07:35:04.588Z,8.90
2023-04-17T07:37:33.085Z,8.90
2023-04-17T07:40:00.655Z,9.10
2023-04-17T07:42:29.404Z,9.30
2023-04-17T07:44:58.665Z,9.30
2023-04-17T07:47:26.157Z,9.40
2023-04-17T07:49:56.235Z,9.40
2023-04-17T07:52:23.880Z,9.40
2023-04-17T07:54:51.381Z,9.50
2023-04-17T07:57:19.045Z,9.60
2023-04-17T07:59:47.226Z,9.60
2023-04-17T08:02:16.447Z,9.60
2023-04-17T08:04:45.069Z,9.50
2023-04-17T08:07:13.264Z,9.50
2023-04-17T08:09:43.265Z,9.50
2023-04-17T08:12:14.004Z,9.60
2023-04-17T08:14:42.078Z,9.50
2023-04-17T08:17:09.637Z,9.50
2023-04-17T08:19:37.108Z,9.60
2023-04-17T08:22:06.310Z,9.70
2023-04-17T08:24:36.023Z,9.70
2023-04-17T08:27:03.766Z,9.80
2023-04-17T08:29:31.109Z,9.80
2023-04-17T08:32:13.188Z,9.80
2023-04-17T08:34:42.575Z,9.90
2023-04-17T08:37:09.986Z,9.80
2023-04-17T08:39:37.385Z,9.90
2023-04-17T08:42:17.723Z,10.00
2023-04-17T08:44:48.584Z,10.10
2023-04-17T08:47:18.433Z,10.20
2023-04-17T08:49:47.296Z,10.30
2023-04-17T08:52:14.850Z,10.50
2023-04-17T08:54:42.207Z,10.80
2023-04-17T08:57:09.613Z,10.90
2023-04-17T08:59:36.988Z,10.70
2023-04-17T09:02:07.397Z,10.80
2023-04-17T09:04:43.823Z,10.60
2023-04-17T09:07:15.738Z,10.00
2023-04-17T09:09:56.967Z,9.90
2023-04-17T09:12:25.921Z,9.80
2023-04-17T09:14:53.408Z,9.70
2023-04-17T09:17:21.667Z,9.80
2023-04-17T09:20:19.991Z,9.70
2023-04-17T09:22:47.829Z,9.60
2023-04-17T09:25:17.352Z,9.40
2023-04-17T09:27:45.106Z,9.40
2023-04-17T09:30:13.611Z,9.50
2023-04-17T09:32:41.310Z,9.60
2023-04-17T09:35:09.046Z,9.60
2023-04-17T09:37:56.260Z,9.50
2023-04-17T09:40:25.349Z,9.50
2023-04-17T09:43:04.051Z,9.60
2023-04-17T09:45:36.001Z,9.70
2023-04-17T09:48:11.717Z,9.90
2023-04-17T09:50:40.004Z,10.00
2023-04-17T09:53:08.690Z,10.00
2023-04-17T09:55:38.058Z,10.10
2023-04-17T09:58:08.048Z,10.30
2023-04-17T10:00:37.013Z,10.30
2023-04-17T10:03:05.269Z,10.40
2023-04-17T10:05:33.171Z,10.50
2023-04-17T10:08:01.186Z,10.60
2023-04-17T10:10:32.475Z,10.70
2023-04-17T10:13:02.028Z,10.90
2023-04-17T10:15:31.078Z,11.00
2023-04-17T10:18:19.862Z,11.20
2023-04-17T10:20:48.666Z,11.10
2023-04-17T10:23:34.233Z,10.80
2023-04-17T10:26:46.927Z,10.20
2023-04-17T10:29:14.464Z,9.90
2023-04-17T10:32:16.025Z,9.60
2023-04-17T10:34:44.263Z,9.50
2023-04-17T10:37:16.082Z,9.40
2023-04-17T10:40:00.224Z,9.40
2023-04-17T10:42:29.852Z,9.50
2023-04-17T10:45:01.609Z,9.60
2023-04-17T10:47:33.787Z,9.80
2023-04-17T10:50:05.058Z,10.00
2023-04-17T10:52:40.278Z,10.10
2023-04-17T10:55:22.237Z,10.30
2023-04-17T10:57:58.832Z,10.40
2023-04-17T11:00:35.996Z,10.60
2023-04-17T11:03:05.700Z,10.60
2023-04-17T11:05:34.077Z,10.50
2023-04-17T11:08:01.844Z,10.50
2023-04-17T11:10:29.370Z,10.70
2023-04-17T11:12:57.028Z,10.60
2023-04-17T11:15:34.060Z,10.50
2023-04-17T11:18:03.056Z,10.50
2023-04-17T11:20:32.462Z,10.40
2023-04-17T11:23:04.564Z,10.20
2023-04-17T11:25:33.836Z,10.20
2023-04-17T11:28:03.542Z,10.40
2023-04-17T11:30:40.822Z,10.70
2023-04-17T11:33:09.015Z,10.90
2023-04-17T11:35:38.638Z,11.00
2023-04-17T11:38:13.997Z,10.90
2023-04-17T11:40:55.173Z,11.00
2023-04-17T11:43:24.035Z,10.90
2023-04-17T11:45:56.638Z,10.80
2023-04-17T11:48:26.435Z,10.50
2023-04-17T11:51:04.002Z,10.50
2023-04-17T11:53:34.517Z,10.30
2023-04-17T11:56:16.255Z,10.00
2023-04-17T11:58:54.820Z,9.80
2023-04-17T12:01:27.043Z,9.80
2023-04-17T12:03:59.360Z,9.70
2023-04-17T12:06:37.834Z,9.80
2023-04-17T12:09:07.324Z,9.80
2023-04-17T12:11:36.149Z,10.00
2023-04-17T12:14:05.800Z,10.00
2023-04-17T12:16:33.351Z,10.10
2023-04-17T12:19:01.026Z,10.20
2023-04-17T12:21:31.658Z,10.40
2023-04-17T12:23:59.227Z,10.70
2023-04-17T12:26:26.906Z,10.80
2023-04-17T12:28:56.347Z,10.80
2023-04-17T12:31:23.682Z,10.80
2023-04-17T12:33:52.514Z,10.70
2023-04-17T12:36:19.879Z,10.70
2023-04-17T12:38:47.381Z,10.70
2023-04-17T12:41:14.753Z,10.80
2023-04-17T12:43:42.420Z,11.00
2023-04-17T12:46:10.585Z,11.10
2023-04-17T12:48:38.033Z,10.90
2023-04-17T12:51:05.971Z,10.80
2023-04-17T12:53:33.364Z,10.80
2023-04-17T12:56:00.852Z,10.80
2023-04-17T12:58:28.648Z,11.00
2023-04-17T13:00:56.132Z,11.00
2023-04-17T13:03:23.516Z,11.00
2023-04-17T13:05:53.166Z,10.60
2023-04-17T13:08:21.130Z,10.40
2023-04-17T13:10:48.611Z,10.10
2023-04-17T13:13:15.932Z,10.00
2023-04-17T13:15:45.937Z,9.90
2023-04-17T13:18:13.481Z,9.90
2023-04-17T13:20:40.976Z,9.90
2023-04-17T13:23:08.432Z,9.90
2023-04-17T13:25:35.820Z,9.90
2023-04-17T13:28:03.831Z,10.00
2023-04-17T13:30:32.358Z,10.00
2023-04-17T13:32:59.787Z,10.00
2023-04-17T13:35:27.301Z,10.00
2023-04-17T13:37:55.798Z,10.10
2023-04-17T13:40:23.231Z,10.20
2023-04-17T13:42:50.906Z,10.20
2023-04-17T13:45:18.436Z,10.20
2023-04-17T13:47:46.051Z,10.30
2023-04-17T13:50:13.737Z,10.20
2023-04-17T13:52:41.097Z,10.20
2023-04-17T13:55:11.913Z,10.20
2023-04-17T13:57:39.352Z,10.00
2023-04-17T14:00:07.771Z,10.10
2023-04-17T14:02:35.372Z,10.30
2023-04-17T14:05:03.100Z,10.20
2023-04-17T14:07:30.606Z,10.20
2023-04-17T14:09:58.074Z,10.20
2023-04-17T14:12:25.452Z,10.20
2023-04-17T14:14:52.731Z,10.20
2023-04-17T14:17:20.090Z,10.30
2023-04-17T14:19:47.424Z,10.20
2023-04-17T14:22:14.787Z,10.20
2023-04-17T14:24:42.072Z,10.30
2023-04-17T14:27:09.460Z,10.40
2023-04-17T14:29:36.916Z,10.30
2023-04-17T14:32:04.554Z,10.20
2023-04-17T14:34:31.814Z,10.30
2023-04-17T14:36:59.175Z,10.30
2023-04-17T14:39:26.446Z,10.40
2023-04-17T14:41:53.810Z,10.30
2023-04-17T14:44:21.144Z,10.10
2023-04-17T14:46:48.915Z,10.10
2023-04-17T14:49:16.725Z,10.00
2023-04-17T14:51:44.064Z,9.90
2023-04-17T14:54:11.615Z,10.00
2023-04-17T14:56:39.864Z,10.00
2023-04-17T14:59:07.256Z,10.10
2023-04-17T15:01:34.660Z,10.20
2023-04-17T15:04:03.543Z,10.10
2023-04-17T15:06:31.057Z,10.10
2023-04-17T15:08:58.317Z,10.00
2023-04-17T15:11:25.819Z,10.20
2023-04-17T15:13:53.171Z,10.10
2023-04-17T15:16:20.529Z,10.20
2023-04-17T15:18:48.077Z,10.20
2023-04-17T15:21:18.864Z,10.10
2023-04-17T15:23:46.265Z,10.00
2023-04-17T15:26:13.839Z,9.90
2023-04-17T15:28:41.167Z,9.90
2023-04-17T15:31:08.571Z,9.70
2023-04-17T15:33:37.458Z,9.60
2023-04-17T15:36:04.922Z,9.40
2023-04-17T15:38:32.322Z,9.20
2023-04-17T15:40:59.616Z,9.20
2023-04-17T15:43:27.170Z,9.20
2023-04-17T15:45:54.814Z,9.10
2023-04-17T15:48:22.192Z,9.10
2023-04-17T15:50:49.474Z,9.10
2023-04-17T15:53:16.812Z,9.00
2023-04-17T15:55:44.162Z,9.00
2023-04-17T15:58:11.580Z,8.90
2023-04-17T16:00:39.071Z,8.80
2023-04-17T16:03:09.289Z,8.70
2023-04-17T16:05:36.817Z,8.70
2023-04-17T16:08:04.208Z,8.70
2023-04-17T16:10:31.499Z,8.70
2023-04-17T16:12:58.862Z,8.70
2023-04-17T16:15:26.152Z,8.70
2023-04-17T16:17:53.583Z,8.70
2023-04-17T16:20:20.900Z,8.60
2023-04-17T16:22:48.247Z,8.50
2023-04-17T16:25:15.632Z,8.50
2023-04-17T16:27:43.091Z,8.50
2023-04-17T16:30:11.049Z,8.50
2023-04-17T16:32:38.470Z,8.60
2023-04-17T16:35:07.174Z,8.50
2023-04-17T16:37:34.538Z,8.50
2023-04-17T16:40:04.882Z,8.50
2023-04-17T16:42:33.109Z,8.50
2023-04-17T16:45:00.623Z,8.50
2023-04-17T16:47:31.366Z,8.50
2023-04-17T16:49:58.835Z,8.40
2023-04-17T16:52:26.158Z,8.40
2023-04-17T16:54:53.461Z,8.40
2023-04-17T16:57:21.054Z,8.40
2023-04-17T16:59:48.350Z,8.30
2023-04-17T17:02:15.742Z,8.30
2023-04-17T17:04:44.882Z,8.20
2023-04-17T17:07:12.339Z,8.20
2023-04-17T17:09:39.602Z,8.20
2023-04-17T17:12:07.041Z,8.10
2023-04-17T17:14:34.375Z,8.10
2023-04-17T17:17:01.808Z,8.20
2023-04-17T17:19:29.456Z,8.10
2023-04-17T17:21:57.083Z,8.10
2023-04-17T17:24:24.376Z,8.10
2023-04-17T17:26:51.779Z,8.10
2023-04-17T17:29:19.104Z,8.00
2023-04-17T17:31:46.462Z,8.00
2023-04-17T17:36:44.188Z,7.90
2023-04-17T17:39:11.874Z,8.00
2023-04-17T17:41:39.340Z,7.90
2023-04-17T17:44:06.736Z,7.90
2023-04-17T17:46:35.791Z,7.80
2023-04-17T17:49:03.291Z,7.80
2023-04-17T17:51:31.294Z,7.80
2023-04-17T17:53:58.632Z,7.80
2023-04-17T17:56:26.021Z,7.80
2023-04-17T17:58:53.495Z,7.70
2023-04-17T18:01:22.743Z,7.70
2023-04-17T18:03:50.423Z,7.80
2023-04-17T18:06:17.881Z,7.70
2023-04-17T18:08:45.242Z,7.70
2023-04-17T18:11:13.792Z,7.70
2023-04-17T18:13:41.213Z,7.70
2023-04-17T18:16:08.758Z,7.70
2023-04-17T18:18:36.184Z,7.70
2023-04-17T18:21:07.192Z,7.70
2023-04-17T18:23:34.965Z,7.70
2023-04-17T18:26:03.338Z,7.70
2023-04-17T18:28:30.794Z,7.70
2023-04-17T18:30:58.160Z,7.60
2023-04-17T18:33:25.537Z,7.60
2023-04-17T18:35:52.851Z,7.60
2023-04-17T18:38:20.227Z,7.50
2023-04-17T18:40:47.479Z,7.60
2023-04-17T18:43:14.796Z,7.60
2023-04-17T18:45:42.089Z,7.60
2023-04-17T18:48:09.431Z,7.60
2023-04-17T18:50:38.405Z,7.60
2023-04-17T18:53:05.785Z,7.50
2023-04-17T18:55:33.244Z,7.50
2023-04-17T18:58:00.968Z,7.50
2023-04-17T19:00:28.356Z,7.50
2023-04-17T19:02:55.795Z,7.50
2023-04-17T19:05:23.558Z,7.50
2023-04-17T19:07:51.883Z,7.50
2023-04-17T19:10:19.298Z,7.50
2023-04-17T19:12:46.918Z,7.50
2023-04-17T19:15:14.251Z,7.50
2023-04-17T19:17:41.587Z,7.50
2023-04-17T19:20:09.927Z,7.50
2023-04-17T19:22:37.222Z,7.50
2023-04-17T19:25:04.929Z,7.50
2023-04-17T19:27:32.249Z,7.50
2023-04-17T19:29:59.859Z,7.50
2023-04-17T19:32:27.223Z,7.50
2023-04-17T19:34:54.635Z,7.50
2023-04-17T19:37:21.915Z,7.50
2023-04-17T19:39:49.268Z,7.50
2023-04-17T19:42:16.569Z,7.50
2023-04-17T19:44:43.875Z,7.50
2023-04-17T19:47:11.415Z,7.60
2023-04-17T19:49:38.976Z,7.50
2023-04-17T19:52:06.328Z,7.50
2023-04-17T19:54:33.685Z,7.50
2023-04-17T19:57:02.220Z,7.50
2023-04-17T19:59:29.667Z,7.50
2023-04-17T20:01:56.979Z,7.50
2023-04-17T20:04:24.506Z,7.50
2023-04-17T20:06:51.957Z,7.50
2023-04-17T20:09:19.653Z,7.50
2023-04-17T20:11:47.177Z,7.50
2023-04-17T20:14:15.746Z,7.50
2023-04-17T20:16:45.363Z,7.40
2023-04-17T20:19:13.356Z,7.50
2023-04-17T20:21:40.972Z,7.50
2023-04-17T20:24:08.388Z,7.50
2023-04-17T20:26:37.375Z,7.50
2023-04-17T20:29:04.965Z,7.50
2023-04-17T20:31:36.280Z,7.50
2023-04-17T20:34:03.896Z,7.50
2023-04-17T20:36:31.420Z,7.50
2023-04-17T20:38:58.685Z,7.50
2023-04-17T20:41:26.014Z,7.50
2023-04-17T20:43:59.854Z,7.60
2023-04-17T20:46:27.781Z,7.50
2023-04-17T20:48:55.414Z,7.50
2023-04-17T20:51:27.511Z,7.60
2023-04-17T20:53:55.108Z,7.50
2023-04-17T20:56:23.109Z,7.50
2023-04-17T20:58:50.670Z,7.40
2023-04-17T21:01:18.067Z,7.30
2023-04-17T21:03:45.846Z,7.30
2023-04-17T21:06:13.241Z,7.30
2023-04-17T21:08:40.639Z,7.20
2023-04-17T21:11:07.950Z,7.30
2023-04-17T21:13:35.402Z,7.30
2023-04-17T21:16:02.725Z,7.30
2023-04-17T21:18:30.152Z,7.30
2023-04-17T21:20:57.686Z,7.30
2023-04-17T21:23:25.232Z,7.30
2023-04-17T21:25:53.672Z,7.30
2023-04-17T21:28:21.145Z,7.30
2023-04-17T21:30:48.785Z,7.30
2023-04-17T21:33:16.422Z,7.30
2023-04-17T21:35:43.757Z,7.40
2023-04-17T21:38:11.033Z,7.30
2023-04-17T21:40:48.126Z,7.40
2023-04-17T21:43:18.263Z,7.30
2023-04-17T21:45:45.739Z,7.40
2023-04-17T21:48:14.833Z,7.40
2023-04-17T21:50:43.347Z,7.40
2023-04-17T21:53:10.737Z,7.40
2023-04-17T21:55:38.579Z,7.40
2023-04-17T21:58:05.956Z,7.40
2023-04-17T22:00:45.583Z,7.40
2023-04-17T22:03:13.042Z,7.40
2023-04-17T22:05:40.862Z,7.40
2023-04-17T22:08:08.189Z,7.40
2023-04-17T22:10:35.634Z,7.40
2023-04-17T22:13:03.448Z,7.40
2023-04-17T22:15:30.939Z,7.40
2023-04-17T22:17:58.937Z,7.40
2023-04-17T22:20:26.445Z,7.30
2023-04-17T22:22:53.779Z,7.30
2023-04-17T22:25:21.140Z,7.30
2023-04-17T22:27:48.409Z,7.30
2023-04-17T22:30:15.944Z,7.40
2023-04-17T22:32:43.284Z,7.40
2023-04-17T22:35:10.640Z,7.40
2023-04-17T22:37:37.931Z,7.40
2023-04-17T22:40:06.138Z,7.30
2023-04-17T22:42:33.403Z,7.30
2023-04-17T22:45:00.777Z,7.30
2023-04-17T22:47:28.061Z,7.40
2023-04-17T22:49:55.504Z,7.30
2023-04-17T22:52:22.771Z,7.30
2023-04-17T22:54:50.082Z,7.40
2023-04-17T22:57:17.384Z,7.40
2023-04-17T22:59:44.781Z,7.40
2023-04-17T23:02:12.174Z,7.40
2023-04-17T23:04:39.639Z,7.40
2023-04-17T23:07:06.928Z,7.40
2023-04-17T23:09:34.297Z,7.40
2023-04-17T23:12:02.260Z,7.40
2023-04-17T23:14:29.688Z,7.40
2023-04-17T23:16:57.000Z,7.40
2023-04-17T23:19:24.368Z,7.30
2023-04-17T23:21:51.714Z,7.30
2023-04-17T23:24:18.989Z,7.40
2023-04-17T23:26:48.521Z,7.40
2023-04-17T23:29:16.290Z,7.40
2023-04-17T23:31:45.437Z,7.40
2023-04-17T23:34:12.973Z,7.40
2023-04-17T23:36:40.488Z,7.40
2023-04-17T23:39:07.798Z,7.40
2023-04-17T23:41:35.378Z,7.40
2023-04-17T23:44:03.950Z,7.50
2023-04-17T23:46:31.290Z,7.50
2023-04-17T23:48:58.623Z,7.50
2023-04-17T23:51:26.282Z,7.50
2023-04-17T23:53:53.667Z,7.50
2023-04-17T23:56:22.667Z,7.50
2023-04-17T23:58:50.018Z,7.50
